Bamako, Mali
Current Conditions -  °F | °C
As of 3:30 PM on Saturday 25 Oct 2014 (Local Time) from GABS Reporting Station
Broken Clouds Broken Clouds  
Wind Chill: 93°   Ceiling: 23000
Heat Index: 94°   Visibility: 6mi
Dew Point: 63°   Wind: 7mph
Humidity: 36%   Direction: 60°ENE
Pressure: 29.85"   Gusts: NA
Location:  12.65°N, 7.99°W
Report Text: GABS 251530Z 06006KT 020V100 9999 SCT025 FEW030TCU BKN23034/17 Q1011 NOSIG
Loading
Personal Weather Stations






























Interactive Weather Map
Tropical Storm Tracking
New forecast layout! Learn more

10-Day Weather Forecast

Advertisements
Track Severe Weather on mobile